createdAt,value
2022-12-09T00:00:09.000Z,2.6
2022-12-09T00:01:25.000Z,2.6
2022-12-09T00:03:58.000Z,2.7
2022-12-09T00:05:14.000Z,2.6
2022-12-09T00:06:30.000Z,2.7
2022-12-09T00:07:45.000Z,2.7
2022-12-09T00:09:01.000Z,2.7
2022-12-09T00:10:18.000Z,2.7
2022-12-09T00:11:34.000Z,2.7
2022-12-09T00:12:50.000Z,2.7
2022-12-09T00:15:23.000Z,2.8
2022-12-09T00:16:39.000Z,2.7
2022-12-09T00:17:55.000Z,2.7
2022-12-09T00:19:12.000Z,2.7
2022-12-09T00:20:28.000Z,2.7
2022-12-09T00:21:44.000Z,2.7
2022-12-09T00:23:00.000Z,2.7
2022-12-09T00:24:16.000Z,2.7
2022-12-09T00:25:32.000Z,2.8
2022-12-09T00:26:48.000Z,2.8
2022-12-09T00:28:05.000Z,2.7
2022-12-09T00:29:21.000Z,2.8
2022-12-09T00:30:37.000Z,2.8
2022-12-09T00:31:53.000Z,2.8
2022-12-09T00:33:10.000Z,2.8
2022-12-09T00:34:25.000Z,2.8
2022-12-09T00:35:40.000Z,2.8
2022-12-09T00:36:57.000Z,2.9
2022-12-09T00:38:13.000Z,2.9
2022-12-09T00:39:29.000Z,2.8
2022-12-09T00:42:02.000Z,2.9
2022-12-09T00:43:18.000Z,2.9
2022-12-09T00:44:34.000Z,2.9
2022-12-09T00:45:51.000Z,2.9
2022-12-09T00:47:07.000Z,3
2022-12-09T00:48:23.000Z,3
2022-12-09T00:49:39.000Z,2.9
2022-12-09T00:50:56.000Z,2.9
2022-12-09T00:52:11.000Z,2.8
2022-12-09T00:53:27.000Z,2.9
2022-12-09T00:54:44.000Z,2.8
2022-12-09T00:56:00.000Z,2.7
2022-12-09T00:57:16.000Z,2.7
2022-12-09T00:58:33.000Z,2.6
2022-12-09T00:59:49.000Z,2.6
2022-12-09T01:01:05.000Z,2.7
2022-12-09T01:02:21.000Z,2.7
2022-12-09T01:03:38.000Z,2.7
2022-12-09T01:04:54.000Z,2.8
2022-12-09T01:07:27.000Z,2.8
2022-12-09T01:08:42.000Z,2.9
2022-12-09T01:09:58.000Z,2.8
2022-12-09T01:11:14.000Z,2.8
2022-12-09T01:12:31.000Z,2.8
2022-12-09T01:13:47.000Z,2.8
2022-12-09T01:15:03.000Z,2.8
2022-12-09T01:16:20.000Z,2.8
2022-12-09T01:17:36.000Z,2.8
2022-12-09T01:18:52.000Z,2.9
2022-12-09T01:20:08.000Z,2.9
2022-12-09T01:21:25.000Z,2.9
2022-12-09T01:22:41.000Z,3
2022-12-09T01:23:57.000Z,3
2022-12-09T01:25:13.000Z,3
2022-12-09T01:26:29.000Z,3.1
2022-12-09T01:27:45.000Z,3.1
2022-12-09T01:29:01.000Z,3
2022-12-09T01:30:18.000Z,3.1
2022-12-09T01:31:34.000Z,3.1
2022-12-09T01:32:50.000Z,3.1
2022-12-09T01:34:07.000Z,3.1
2022-12-09T01:35:23.000Z,3.1
2022-12-09T01:36:39.000Z,3.1
2022-12-09T01:37:55.000Z,3.1
2022-12-09T01:39:12.000Z,3.1
2022-12-09T01:40:28.000Z,3
2022-12-09T01:41:43.000Z,3
2022-12-09T01:43:00.000Z,3.1
2022-12-09T01:45:32.000Z,3.2
2022-12-09T01:46:49.000Z,3.2
2022-12-09T01:48:05.000Z,3.2
2022-12-09T01:49:21.000Z,3.2
2022-12-09T01:50:37.000Z,3.2
2022-12-09T01:51:54.000Z,3.2
2022-12-09T01:53:10.000Z,3.1
2022-12-09T01:54:26.000Z,3.1
2022-12-09T01:55:43.000Z,3.1
2022-12-09T01:56:59.000Z,3
2022-12-09T01:59:30.000Z,3
2022-12-09T02:00:47.000Z,3
2022-12-09T02:02:03.000Z,3
2022-12-09T02:03:19.000Z,3.1
2022-12-09T02:04:36.000Z,3.1
2022-12-09T02:05:52.000Z,3.1
2022-12-09T02:07:08.000Z,3.1
2022-12-09T02:08:24.000Z,3.2
2022-12-09T02:10:57.000Z,3.2
2022-12-09T02:12:12.000Z,3.2
2022-12-09T02:13:28.000Z,3.3
2022-12-09T02:14:44.000Z,3.3
2022-12-09T02:16:00.000Z,3.3
2022-12-09T02:17:16.000Z,3.3
2022-12-09T02:18:33.000Z,3.2
2022-12-09T02:19:49.000Z,3.2
2022-12-09T02:21:05.000Z,3.2
2022-12-09T02:22:22.000Z,3.2
2022-12-09T02:23:38.000Z,3.2
2022-12-09T02:24:54.000Z,3.2
2022-12-09T02:26:10.000Z,3.2
2022-12-09T02:27:25.000Z,3.2
2022-12-09T02:28:41.000Z,3.2
2022-12-09T02:29:57.000Z,3.1
2022-12-09T02:31:14.000Z,3.1
2022-12-09T02:32:30.000Z,3.1
2022-12-09T02:33:46.000Z,3
2022-12-09T02:35:03.000Z,3
2022-12-09T02:36:19.000Z,3
2022-12-09T02:37:35.000Z,2.9
2022-12-09T02:40:08.000Z,2.8
2022-12-09T02:41:24.000Z,2.8
2022-12-09T02:42:40.000Z,2.8
2022-12-09T02:43:56.000Z,2.7
2022-12-09T02:45:12.000Z,2.5
2022-12-09T02:46:28.000Z,2.3
2022-12-09T02:49:01.000Z,2.2
2022-12-09T02:50:16.000Z,2.2
2022-12-09T02:51:31.000Z,2.2
2022-12-09T02:52:48.000Z,2.2
2022-12-09T02:54:04.000Z,2.3
2022-12-09T02:55:20.000Z,2.3
2022-12-09T02:56:36.000Z,2.4
2022-12-09T02:57:53.000Z,2.4
2022-12-09T02:59:09.000Z,2.4
2022-12-09T03:00:25.000Z,2.4
2022-12-09T03:01:42.000Z,2.4
2022-12-09T03:02:58.000Z,2.4
2022-12-09T03:04:13.000Z,2.4
2022-12-09T03:05:29.000Z,2.4
2022-12-09T03:06:45.000Z,2.4
2022-12-09T03:08:01.000Z,2.4
2022-12-09T03:09:17.000Z,2.4
2022-12-09T03:10:34.000Z,2.4
2022-12-09T03:11:50.000Z,2.4
2022-12-09T03:14:23.000Z,2.4
2022-12-09T03:15:39.000Z,2.4
2022-12-09T03:16:55.000Z,2.2
2022-12-09T03:18:11.000Z,2.1
2022-12-09T03:19:28.000Z,2.2
2022-12-09T03:20:44.000Z,2.2
2022-12-09T03:23:17.000Z,2.2
2022-12-09T03:24:32.000Z,2.3
2022-12-09T03:25:47.000Z,2.3
2022-12-09T03:27:04.000Z,2.3
2022-12-09T03:28:20.000Z,2.3
2022-12-09T03:29:36.000Z,2.3
2022-12-09T03:30:52.000Z,2.3
2022-12-09T03:32:09.000Z,2.3
2022-12-09T03:33:25.000Z,2.3
2022-12-09T03:34:41.000Z,2.3
2022-12-09T03:35:58.000Z,2.3
2022-12-09T03:37:14.000Z,2.3
2022-12-09T03:38:29.000Z,2.3
2022-12-09T03:39:45.000Z,2.3
2022-12-09T03:41:01.000Z,2.3
2022-12-09T03:42:16.000Z,2.2
2022-12-09T03:43:32.000Z,2.2
2022-12-09T03:44:49.000Z,2.3
2022-12-09T03:46:05.000Z,2.3
2022-12-09T03:47:21.780Z,2.2
2022-12-09T03:48:38.000Z,2.1
2022-12-09T03:49:54.000Z,2
2022-12-09T03:52:26.000Z,2.1
2022-12-09T03:53:43.000Z,2.1
2022-12-09T03:56:15.000Z,2
2022-12-09T03:58:47.000Z,1.8
2022-12-09T04:00:02.000Z,1.8
2022-12-09T04:01:18.000Z,1.8
2022-12-09T04:02:34.000Z,1.9
2022-12-09T04:03:50.000Z,1.7
2022-12-09T04:05:06.000Z,1.7
2022-12-09T04:06:23.000Z,1.7
2022-12-09T04:07:39.000Z,1.6
2022-12-09T04:08:55.000Z,1.7
2022-12-09T04:10:12.000Z,1.7
2022-12-09T04:11:28.000Z,1.8
2022-12-09T04:12:44.000Z,1.8
2022-12-09T04:13:59.000Z,1.8
2022-12-09T04:15:15.000Z,1.9
2022-12-09T04:16:31.000Z,1.9
2022-12-09T04:17:47.000Z,2
2022-12-09T04:19:04.000Z,2.1
2022-12-09T04:20:20.000Z,2
2022-12-09T04:21:36.000Z,2
2022-12-09T04:22:52.000Z,2
2022-12-09T04:24:09.000Z,2
2022-12-09T04:25:25.000Z,1.9
2022-12-09T04:26:41.000Z,2
2022-12-09T04:29:14.000Z,1.9
2022-12-09T04:30:30.000Z,1.9
2022-12-09T04:31:45.000Z,1.9
2022-12-09T04:33:02.000Z,2
2022-12-09T04:34:18.000Z,2.1
2022-12-09T04:35:34.000Z,2.1
2022-12-09T04:36:51.000Z,2.1
2022-12-09T04:38:07.000Z,2.2
2022-12-09T04:39:23.000Z,2.2
2022-12-09T04:40:39.000Z,2.2
2022-12-09T04:43:12.000Z,2.2
2022-12-09T04:44:28.000Z,2.2
2022-12-09T04:45:45.000Z,2.2
2022-12-09T04:47:01.000Z,2.2
2022-12-09T04:48:16.000Z,2.2
2022-12-09T04:49:33.000Z,2.2
2022-12-09T04:50:49.000Z,2.3
2022-12-09T04:52:05.000Z,2.2
2022-12-09T04:53:21.000Z,2.2
2022-12-09T04:54:38.000Z,2.3
2022-12-09T04:55:54.000Z,2.3
2022-12-09T04:57:10.000Z,2.3
2022-12-09T04:59:43.000Z,2.4
2022-12-09T05:00:59.000Z,2.4
2022-12-09T05:02:15.000Z,2.4
2022-12-09T05:03:32.000Z,2.4
2022-12-09T05:04:47.000Z,2.4
2022-12-09T05:06:03.000Z,2.5
2022-12-09T05:07:20.000Z,2.4
2022-12-09T05:08:36.000Z,2.5
2022-12-09T05:09:52.000Z,2.5
2022-12-09T05:11:08.000Z,2.6
2022-12-09T05:12:25.000Z,2.6
2022-12-09T05:13:41.000Z,2.6
2022-12-09T05:14:57.000Z,2.6
2022-12-09T05:16:14.000Z,2.6
2022-12-09T05:17:30.000Z,2.6
2022-12-09T05:18:46.000Z,2.5
2022-12-09T05:21:19.000Z,2.5
2022-12-09T05:23:50.000Z,2.5
2022-12-09T05:25:06.000Z,2.5
2022-12-09T05:26:21.000Z,2.5
2022-12-09T05:27:37.000Z,2.5
2022-12-09T05:28:54.000Z,2.5
2022-12-09T05:30:10.000Z,2.6
2022-12-09T05:32:42.000Z,2.6
2022-12-09T05:33:59.000Z,2.7
2022-12-09T05:35:15.000Z,2.6
2022-12-09T05:37:48.000Z,2.6
2022-12-09T05:39:04.000Z,2.6
2022-12-09T05:40:20.000Z,2.6
2022-12-09T05:41:35.000Z,2.6
2022-12-09T05:42:51.000Z,2.6
2022-12-09T05:44:07.000Z,2.6
2022-12-09T05:45:23.000Z,2.6
2022-12-09T05:46:40.000Z,2.6
2022-12-09T05:47:56.000Z,2.5
2022-12-09T05:49:12.000Z,2.5
2022-12-09T05:50:28.000Z,2.5
2022-12-09T05:51:45.000Z,2.5
2022-12-09T05:53:01.000Z,2.5
2022-12-09T05:54:17.000Z,2.5
2022-12-09T05:55:33.000Z,2.5
2022-12-09T05:56:48.000Z,2.5
2022-12-09T05:58:04.000Z,2.5
2022-12-09T05:59:21.000Z,2.5
2022-12-09T06:00:37.000Z,2.5
2022-12-09T06:03:09.000Z,2.4
2022-12-09T06:04:26.000Z,2.4
2022-12-09T06:05:42.000Z,2.4
2022-12-09T06:06:58.000Z,2.4
2022-12-09T06:08:15.000Z,2.4
2022-12-09T06:09:31.000Z,2.4
2022-12-09T06:12:03.000Z,2.4
2022-12-09T06:13:19.000Z,2.3
2022-12-09T06:14:34.000Z,2.3
2022-12-09T06:15:50.000Z,2.3
2022-12-09T06:18:23.000Z,2.2
2022-12-09T06:19:39.000Z,2.2
2022-12-09T06:23:28.000Z,2.2
2022-12-09T06:24:44.000Z,2.2
2022-12-09T06:26:01.000Z,2.2
2022-12-09T06:27:17.000Z,2.2
2022-12-09T06:28:33.000Z,2.2
2022-12-09T06:29:49.000Z,2.2
2022-12-09T06:31:06.000Z,2.2
2022-12-09T06:32:21.000Z,2.2
2022-12-09T06:33:37.000Z,2.2
2022-12-09T06:34:54.000Z,2.2
2022-12-09T06:37:26.000Z,2.3
2022-12-09T06:38:42.000Z,2.3
2022-12-09T06:39:59.000Z,2.2
2022-12-09T06:41:15.000Z,2
2022-12-09T06:42:31.000Z,1.9
2022-12-09T06:43:48.000Z,1.9
2022-12-09T06:45:04.000Z,1.9
2022-12-09T06:46:20.000Z,1.9
2022-12-09T06:47:37.000Z,1.9
2022-12-09T06:48:52.000Z,2
2022-12-09T06:50:07.000Z,2
2022-12-09T06:51:22.000Z,2
2022-12-09T06:52:39.000Z,2
2022-12-09T06:53:55.000Z,2.1
2022-12-09T06:55:11.000Z,2.2
2022-12-09T06:56:27.000Z,2.2
2022-12-09T06:57:44.000Z,2.2
2022-12-09T06:59:00.000Z,2.2
2022-12-09T07:00:16.000Z,2.3
2022-12-09T07:01:33.000Z,2.3
2022-12-09T07:04:05.000Z,2.3
2022-12-09T07:05:21.000Z,2.3
2022-12-09T07:06:38.000Z,2.2
2022-12-09T07:07:53.000Z,2.2
2022-12-09T07:09:09.000Z,2.2
2022-12-09T07:10:25.000Z,2.2
2022-12-09T07:11:42.000Z,2.3
2022-12-09T07:12:58.000Z,2.3
2022-12-09T07:15:30.000Z,2.3
2022-12-09T07:18:02.000Z,2.4
2022-12-09T07:19:17.000Z,2.4
2022-12-09T07:20:32.000Z,2.4
2022-12-09T07:21:48.000Z,2.4
2022-12-09T07:23:05.000Z,2.4
2022-12-09T07:24:21.000Z,2.3
2022-12-09T07:25:37.000Z,2.3
2022-12-09T07:26:53.000Z,2.3
2022-12-09T07:28:10.000Z,2.3
2022-12-09T07:29:26.000Z,2.3
2022-12-09T07:30:42.000Z,2.4
2022-12-09T07:31:58.000Z,2.4
2022-12-09T07:33:14.000Z,2.4
2022-12-09T07:34:29.000Z,2.4
2022-12-09T07:35:45.000Z,2.4
2022-12-09T07:38:18.000Z,2.4
2022-12-09T07:39:34.000Z,2.4
2022-12-09T07:40:50.000Z,2.4
2022-12-09T07:42:06.000Z,2.5
2022-12-09T07:43:22.000Z,2.5
2022-12-09T07:44:39.000Z,2.4
2022-12-09T07:45:55.000Z,2.4
2022-12-09T07:47:11.000Z,2.4
2022-12-09T07:49:44.000Z,2.4
2022-12-09T07:50:59.000Z,2.4
2022-12-09T07:53:30.000Z,2.4
2022-12-09T07:54:47.000Z,2.4
2022-12-09T07:56:03.000Z,2.5
2022-12-09T07:57:18.000Z,2.5
2022-12-09T07:58:34.000Z,2.5
2022-12-09T07:59:51.000Z,2.6
2022-12-09T08:01:07.000Z,2.6
2022-12-09T08:02:23.000Z,2.6
2022-12-09T08:03:39.000Z,2.6
2022-12-09T08:04:55.000Z,2.6
2022-12-09T08:06:11.000Z,2.5
2022-12-09T08:07:26.000Z,2.4
2022-12-09T08:08:42.000Z,2.4
2022-12-09T08:09:58.000Z,2.5
2022-12-09T08:11:15.000Z,2.6
2022-12-09T08:12:31.000Z,2.6
2022-12-09T08:13:47.000Z,2.5
2022-12-09T08:15:03.000Z,2.6
2022-12-09T08:17:36.000Z,2.6
2022-12-09T08:18:52.000Z,2.6
2022-12-09T08:20:08.000Z,2.6
2022-12-09T08:21:25.000Z,2.6
2022-12-09T08:22:41.000Z,2.7
2022-12-09T08:23:56.000Z,2.6
2022-12-09T08:25:12.000Z,2.5
2022-12-09T08:27:45.000Z,2.6
2022-12-09T08:29:00.000Z,2.6
2022-12-09T08:31:32.000Z,2.6
2022-12-09T08:32:48.000Z,2.6
2022-12-09T08:35:20.000Z,2.6
2022-12-09T08:36:36.000Z,2.6
2022-12-09T08:39:09.000Z,2.6
2022-12-09T08:40:25.000Z,2.6
2022-12-09T08:41:41.000Z,2.7
2022-12-09T08:44:14.000Z,2.7
2022-12-09T08:45:30.000Z,2.7
2022-12-09T08:46:45.000Z,2.7
2022-12-09T08:48:02.000Z,2.6
2022-12-09T08:49:18.000Z,2.6
2022-12-09T08:50:34.000Z,2.6
2022-12-09T08:51:50.000Z,2.6
2022-12-09T08:54:23.000Z,2.5
2022-12-09T08:56:55.000Z,2.5
2022-12-09T08:58:11.000Z,2.5
2022-12-09T08:59:28.000Z,2.5
2022-12-09T09:00:44.000Z,2.6
2022-12-09T09:02:00.000Z,2.6
2022-12-09T09:04:32.000Z,2.6
2022-12-09T09:05:48.000Z,2.6
2022-12-09T09:07:04.000Z,2.6
2022-12-09T09:09:37.000Z,2.5
2022-12-09T09:10:53.000Z,2.5
2022-12-09T09:12:09.000Z,2.4
2022-12-09T09:13:25.000Z,2.4
2022-12-09T09:14:41.000Z,2.4
2022-12-09T09:15:58.000Z,2.4
2022-12-09T09:17:14.000Z,2.5
2022-12-09T09:18:30.000Z,2.5
2022-12-09T09:19:45.000Z,2.5
2022-12-09T09:21:02.000Z,2.5
2022-12-09T09:22:18.000Z,2.5
2022-12-09T09:24:50.000Z,2.5
2022-12-09T09:26:07.000Z,2.5
2022-12-09T09:27:23.000Z,2.5
2022-12-09T09:28:39.000Z,2.5
2022-12-09T09:29:55.000Z,2.5
2022-12-09T09:31:12.000Z,2.6
2022-12-09T09:32:28.000Z,2.6
2022-12-09T09:33:44.000Z,2.6
2022-12-09T09:35:00.000Z,2.6
2022-12-09T09:36:16.000Z,2.6
2022-12-09T09:37:31.000Z,2.6
2022-12-09T09:38:47.000Z,2.6
2022-12-09T09:40:03.000Z,2.6
2022-12-09T09:41:19.000Z,2.6
2022-12-09T09:42:36.000Z,2.6
2022-12-09T09:43:52.000Z,2.6
2022-12-09T09:45:08.000Z,2.6
2022-12-09T09:46:24.000Z,2.6
2022-12-09T09:47:41.000Z,2.6
2022-12-09T09:48:57.000Z,2.6
2022-12-09T09:50:12.000Z,2.5
2022-12-09T09:51:27.000Z,2.6
2022-12-09T09:52:44.000Z,2.6
2022-12-09T09:54:00.000Z,2.6
2022-12-09T09:55:16.000Z,2.6
2022-12-09T09:56:32.000Z,2.6
2022-12-09T09:57:49.000Z,2.6
2022-12-09T10:01:37.000Z,2.7
2022-12-09T10:02:53.000Z,2.7
2022-12-09T10:04:10.000Z,2.7
2022-12-09T10:05:26.000Z,2.6
2022-12-09T10:06:41.000Z,2.7
2022-12-09T10:07:56.000Z,2.7
2022-12-09T10:09:13.000Z,2.8
2022-12-09T10:10:29.000Z,2.8
2022-12-09T10:13:01.000Z,2.8
2022-12-09T10:14:18.000Z,2.7
2022-12-09T10:15:34.000Z,2.7
2022-12-09T10:16:50.000Z,2.7
2022-12-09T10:18:06.000Z,2.7
2022-12-09T10:19:23.000Z,2.7
2022-12-09T10:21:55.000Z,2.7
2022-12-09T10:23:10.000Z,2.8
2022-12-09T10:25:42.000Z,2.8
2022-12-09T10:26:58.000Z,2.7
2022-12-09T10:28:14.000Z,2.7
2022-12-09T10:29:30.000Z,2.7
2022-12-09T10:30:47.000Z,2.8
2022-12-09T10:32:03.000Z,2.8
2022-12-09T10:33:19.000Z,2.8
2022-12-09T10:34:35.000Z,2.9
2022-12-09T10:35:52.000Z,2.9
2022-12-09T10:38:24.000Z,3
2022-12-09T10:39:40.000Z,3.1
2022-12-09T10:40:56.000Z,3.1
2022-12-09T10:42:12.000Z,3.2
2022-12-09T10:43:28.000Z,3.1
2022-12-09T10:44:44.000Z,3.2
2022-12-09T10:46:01.000Z,3.2
2022-12-09T10:47:17.000Z,3.2
2022-12-09T10:48:33.000Z,3.2
2022-12-09T10:52:22.000Z,3.1
2022-12-09T10:53:38.000Z,3.2
2022-12-09T10:54:54.000Z,3.2
2022-12-09T10:56:10.000Z,3.1
2022-12-09T10:57:26.000Z,3.1
2022-12-09T10:58:42.000Z,3.1
2022-12-09T10:59:58.000Z,3.1
2022-12-09T11:01:14.000Z,3.1
2022-12-09T11:03:47.000Z,3.2
2022-12-09T11:05:03.000Z,3.2
2022-12-09T11:06:19.000Z,3.2
2022-12-09T11:07:36.000Z,3.3
2022-12-09T11:08:52.000Z,3.3
2022-12-09T11:10:08.000Z,3.3
2022-12-09T11:11:24.000Z,3.3
2022-12-09T11:12:40.000Z,3.3
2022-12-09T11:13:56.000Z,3.3
2022-12-09T11:16:28.000Z,3.3
2022-12-09T11:17:44.000Z,3.3
2022-12-09T11:19:01.000Z,3.3
2022-12-09T11:20:17.000Z,3.3
2022-12-09T11:22:49.000Z,3.3
2022-12-09T11:24:06.000Z,3.3
2022-12-09T11:25:22.000Z,3.3
2022-12-09T11:26:38.000Z,3.3
2022-12-09T11:29:11.000Z,3.4
2022-12-09T11:30:26.000Z,3.4
2022-12-09T11:31:42.000Z,3.5
2022-12-09T11:32:58.000Z,3.5
2022-12-09T11:34:14.000Z,3.5
2022-12-09T11:35:31.000Z,3.6
2022-12-09T11:36:47.000Z,3.6
2022-12-09T11:38:03.000Z,3.5
2022-12-09T11:39:19.000Z,3.5
2022-12-09T11:41:52.000Z,3.5
2022-12-09T11:43:08.000Z,3.5
2022-12-09T11:45:41.000Z,3.5
2022-12-09T11:46:56.000Z,3.5
2022-12-09T11:48:12.000Z,3.4
2022-12-09T11:49:28.000Z,3.4
2022-12-09T11:50:45.000Z,3.4
2022-12-09T11:52:01.000Z,3.3
2022-12-09T11:55:49.000Z,3.2
2022-12-09T11:57:06.000Z,3.1
2022-12-09T11:58:22.000Z,3
2022-12-09T12:00:54.000Z,3.1
2022-12-09T12:02:11.000Z,3.1
2022-12-09T12:03:26.000Z,3.1
2022-12-09T12:08:31.000Z,3.2
2022-12-09T12:09:47.000Z,3.2
2022-12-09T12:11:03.000Z,3.3
2022-12-09T12:12:19.000Z,3.2
2022-12-09T12:13:35.000Z,3.2
2022-12-09T12:16:07.000Z,3.3
2022-12-09T12:17:23.000Z,3.4
2022-12-09T12:18:40.000Z,3.4
2022-12-09T12:19:56.000Z,3.5
2022-12-09T12:22:28.000Z,3.3
2022-12-09T12:23:45.000Z,3.3
2022-12-09T12:25:01.000Z,3.4
2022-12-09T12:26:17.000Z,3.5
2022-12-09T12:27:33.000Z,3.6
2022-12-09T12:28:49.000Z,3.6
2022-12-09T12:30:05.000Z,3.6
2022-12-09T12:32:37.000Z,3.6
2022-12-09T12:33:54.000Z,3.6
2022-12-09T12:35:10.000Z,3.7
2022-12-09T12:36:26.000Z,3.7
2022-12-09T12:37:42.000Z,3.8
2022-12-09T12:38:58.000Z,3.7
2022-12-09T12:40:15.000Z,3.7
2022-12-09T12:41:31.000Z,3.7
2022-12-09T12:42:47.000Z,3.7
2022-12-09T12:45:20.000Z,3.7
2022-12-09T12:46:35.000Z,3.7
2022-12-09T12:47:51.000Z,3.7
2022-12-09T12:49:07.000Z,3.6
2022-12-09T12:50:24.000Z,3.6
2022-12-09T12:51:40.000Z,3.6
2022-12-09T12:52:56.000Z,3.6
2022-12-09T12:54:12.000Z,3.7
2022-12-09T12:55:29.000Z,3.6
2022-12-09T12:56:45.000Z,3.6
2022-12-09T12:58:01.000Z,3.6
2022-12-09T12:59:16.000Z,3.6
2022-12-09T13:00:31.000Z,3.5
2022-12-09T13:01:48.000Z,3.5
2022-12-09T13:03:04.000Z,3.5
2022-12-09T13:04:20.000Z,3.5
2022-12-09T13:05:36.000Z,3.5
2022-12-09T13:06:53.000Z,3.4
2022-12-09T13:08:09.000Z,3.5
2022-12-09T13:10:41.000Z,3.4
2022-12-09T13:11:58.000Z,3.4
2022-12-09T13:13:14.000Z,3.4
2022-12-09T13:14:30.000Z,3.4
2022-12-09T13:17:03.000Z,3.5
2022-12-09T13:18:18.000Z,3.4
2022-12-09T13:19:33.000Z,3.4
2022-12-09T13:20:49.000Z,3.4
2022-12-09T13:22:06.000Z,3.4
2022-12-09T13:23:22.000Z,3.4
2022-12-09T13:24:38.000Z,3.4
2022-12-09T13:25:54.000Z,3.3
2022-12-09T13:27:10.000Z,3.3
2022-12-09T13:28:27.000Z,3.3
2022-12-09T13:29:43.000Z,3.4
2022-12-09T13:30:59.000Z,3.4
2022-12-09T13:32:14.000Z,3.3
2022-12-09T13:33:30.000Z,3.3
2022-12-09T13:34:46.000Z,3.3
2022-12-09T13:36:02.000Z,3.2
2022-12-09T13:37:18.000Z,3.2
2022-12-09T13:38:35.000Z,3.2
2022-12-09T13:39:51.000Z,3.2
2022-12-09T13:41:07.000Z,3.2
2022-12-09T13:42:23.000Z,3.2
2022-12-09T13:43:40.000Z,3.2
2022-12-09T13:44:56.000Z,3.2
2022-12-09T13:48:43.000Z,3.1
2022-12-09T13:49:59.000Z,3.1
2022-12-09T13:51:14.000Z,3.2
2022-12-09T13:52:30.742Z,3.1
2022-12-09T13:53:46.000Z,3.2
2022-12-09T13:55:03.000Z,3.2
2022-12-09T13:56:19.000Z,3.2
2022-12-09T13:57:35.000Z,3.2
2022-12-09T13:58:51.000Z,3.2
2022-12-09T14:00:08.000Z,3.2
2022-12-09T14:01:24.000Z,3.1
2022-12-09T14:02:40.000Z,3
2022-12-09T14:03:55.000Z,3.1
2022-12-09T14:05:11.000Z,3
2022-12-09T14:06:27.000Z,2.9
2022-12-09T14:07:43.000Z,2.8
2022-12-09T14:08:59.000Z,2.6
2022-12-09T14:10:16.000Z,2.6
2022-12-09T14:11:32.000Z,2.6
2022-12-09T14:12:48.000Z,2.6
2022-12-09T14:14:04.000Z,2.7
2022-12-09T14:15:20.000Z,2.8
2022-12-09T14:16:37.000Z,2.7
2022-12-09T14:17:52.000Z,2.8
2022-12-09T14:19:07.000Z,2.8
2022-12-09T14:20:23.000Z,2.9
2022-12-09T14:21:40.000Z,2.9
2022-12-09T14:22:56.000Z,2.9
2022-12-09T14:24:12.000Z,2.9
2022-12-09T14:26:45.000Z,2.9
2022-12-09T14:28:01.000Z,2.9
2022-12-09T14:29:17.000Z,2.8
2022-12-09T14:30:33.000Z,2.8
2022-12-09T14:31:50.000Z,2.8
2022-12-09T14:33:06.000Z,2.8
2022-12-09T14:34:22.000Z,2.8
2022-12-09T14:35:37.000Z,2.8
2022-12-09T14:36:54.000Z,2.8
2022-12-09T14:38:10.000Z,2.8
2022-12-09T14:39:26.000Z,2.8
2022-12-09T14:40:42.000Z,2.8
2022-12-09T14:41:58.000Z,2.8
2022-12-09T14:43:15.000Z,2.8
2022-12-09T14:44:31.000Z,2.7
2022-12-09T14:45:47.000Z,2.7
2022-12-09T14:47:03.000Z,2.7
2022-12-09T14:48:20.000Z,2.7
2022-12-09T14:49:36.000Z,2.7
2022-12-09T14:52:08.000Z,2.6
2022-12-09T14:53:24.000Z,2.6
2022-12-09T14:54:40.000Z,2.6
2022-12-09T14:55:56.000Z,2.6
2022-12-09T14:57:12.000Z,2.6
2022-12-09T14:58:29.000Z,2.5
2022-12-09T14:59:45.000Z,2.4
2022-12-09T15:01:01.000Z,2.4
2022-12-09T15:02:17.000Z,2.3
2022-12-09T15:03:33.000Z,2.3
2022-12-09T15:04:50.000Z,2.3
2022-12-09T15:06:06.000Z,2.3
2022-12-09T15:07:22.000Z,2.2
2022-12-09T15:08:38.000Z,2.2
2022-12-09T15:09:54.000Z,2.2
2022-12-09T15:11:10.000Z,2.2
2022-12-09T15:12:26.000Z,2.2
2022-12-09T15:13:42.000Z,2.2
2022-12-09T15:14:59.000Z,2.3
2022-12-09T15:17:31.547Z,2.2
2022-12-09T15:18:47.000Z,2.3
2022-12-09T15:20:04.000Z,2.3
2022-12-09T15:21:20.000Z,2.2
2022-12-09T15:22:36.000Z,2.1
2022-12-09T15:23:52.000Z,2.1
2022-12-09T15:25:08.000Z,2.1
2022-12-09T15:26:24.000Z,2.1
2022-12-09T15:27:40.000Z,2.1
2022-12-09T15:30:12.000Z,2
2022-12-09T15:31:29.000Z,2
2022-12-09T15:32:45.000Z,2
2022-12-09T15:34:01.000Z,2
2022-12-09T15:35:17.000Z,2
2022-12-09T15:36:34.000Z,2
2022-12-09T15:37:50.000Z,2
2022-12-09T15:39:06.000Z,2
2022-12-09T15:40:22.000Z,2
2022-12-09T15:41:39.000Z,2
2022-12-09T15:42:54.000Z,2
2022-12-09T15:44:10.000Z,2.1
2022-12-09T15:45:26.000Z,2
2022-12-09T15:46:43.000Z,1.7
2022-12-09T15:47:59.000Z,1.7
2022-12-09T15:49:15.000Z,1.8
2022-12-09T15:50:31.000Z,1.8
2022-12-09T15:51:48.000Z,1.7
2022-12-09T15:53:04.000Z,1.7
2022-12-09T15:54:20.000Z,1.8
2022-12-09T15:55:36.000Z,1.8
2022-12-09T15:56:53.000Z,1.8
2022-12-09T15:58:09.000Z,1.8
2022-12-09T15:59:24.000Z,1.8
2022-12-09T16:00:41.000Z,1.9
2022-12-09T16:01:57.000Z,1.9
2022-12-09T16:03:13.000Z,1.9
2022-12-09T16:04:29.000Z,1.9
2022-12-09T16:05:46.000Z,2
2022-12-09T16:08:18.000Z,1.8
2022-12-09T16:09:35.000Z,1.6
2022-12-09T16:10:51.000Z,1.6
2022-12-09T16:12:07.000Z,1.6
2022-12-09T16:13:23.000Z,1.7
2022-12-09T16:14:40.000Z,1.7
2022-12-09T16:15:55.000Z,1.8
2022-12-09T16:17:11.000Z,1.9
2022-12-09T16:18:28.000Z,1.9
2022-12-09T16:21:00.000Z,1.9
2022-12-09T16:22:16.000Z,1.8
2022-12-09T16:23:33.000Z,1.8
2022-12-09T16:24:49.000Z,1.9
2022-12-09T16:26:05.000Z,1.9
2022-12-09T16:27:21.000Z,1.9
2022-12-09T16:28:37.000Z,1.9
2022-12-09T16:29:53.000Z,1.9
2022-12-09T16:31:09.000Z,1.9
2022-12-09T16:32:26.000Z,2
2022-12-09T16:33:42.000Z,2
2022-12-09T16:34:58.000Z,2
2022-12-09T16:36:15.000Z,2
2022-12-09T16:37:31.000Z,2
2022-12-09T16:38:47.000Z,2
2022-12-09T16:40:04.000Z,2
2022-12-09T16:41:20.000Z,2
2022-12-09T16:42:36.000Z,2
2022-12-09T16:43:51.000Z,2
2022-12-09T16:45:08.000Z,2
2022-12-09T16:46:24.000Z,2
2022-12-09T16:47:40.000Z,2.1
2022-12-09T16:48:57.000Z,2.1
2022-12-09T16:50:13.000Z,2.1
2022-12-09T16:51:29.000Z,2.1
2022-12-09T16:52:45.000Z,2.1
2022-12-09T16:54:02.000Z,2.1
2022-12-09T16:56:34.000Z,2.1
2022-12-09T16:59:07.000Z,2.1
2022-12-09T17:01:38.000Z,2.1
2022-12-09T17:02:54.000Z,2.1
2022-12-09T17:04:09.000Z,2.1
2022-12-09T17:05:25.000Z,2.1
2022-12-09T17:06:42.000Z,2.2
2022-12-09T17:07:58.000Z,2.2
2022-12-09T17:09:14.000Z,2.3
2022-12-09T17:10:31.000Z,2.3
2022-12-09T17:11:47.000Z,2.4
2022-12-09T17:13:03.000Z,2.4
2022-12-09T17:14:19.000Z,2.3
2022-12-09T17:15:36.000Z,2.3
2022-12-09T17:16:51.000Z,2.3
2022-12-09T17:18:06.000Z,2.3
2022-12-09T17:19:23.000Z,2.3
2022-12-09T17:20:39.000Z,2.3
2022-12-09T17:21:55.000Z,2.3
2022-12-09T17:23:11.000Z,2.4
2022-12-09T17:24:28.000Z,2.4
2022-12-09T17:25:44.000Z,2.4
2022-12-09T17:27:00.000Z,2.4
2022-12-09T17:28:17.000Z,2.4
2022-12-09T17:29:33.000Z,2.3
2022-12-09T17:30:49.000Z,2.3
2022-12-09T17:32:05.000Z,2.3
2022-12-09T17:33:22.000Z,2.3
2022-12-09T17:34:37.000Z,2.3
2022-12-09T17:37:10.000Z,2.3
2022-12-09T17:38:26.000Z,2.3
2022-12-09T17:39:42.000Z,2.3
2022-12-09T17:40:58.000Z,2.4
2022-12-09T17:42:15.000Z,2.4
2022-12-09T17:43:31.000Z,2.4
2022-12-09T17:44:47.000Z,2.4
2022-12-09T17:47:20.000Z,2.3
2022-12-09T17:49:52.000Z,2.3
2022-12-09T17:51:08.000Z,2.3
2022-12-09T17:52:23.000Z,2.4
2022-12-09T17:53:39.000Z,2.4
2022-12-09T17:54:56.000Z,2.4
2022-12-09T17:56:12.000Z,2.2
2022-12-09T17:57:28.000Z,2.1
2022-12-09T17:58:45.000Z,2
2022-12-09T18:00:01.000Z,2
2022-12-09T18:01:17.000Z,2.1
2022-12-09T18:03:50.000Z,2.2
2022-12-09T18:05:06.000Z,2.3
2022-12-09T18:06:22.000Z,2.3
2022-12-09T18:07:39.000Z,2.3
2022-12-09T18:08:54.000Z,2.3
2022-12-09T18:10:10.000Z,2.3
2022-12-09T18:11:26.000Z,2.3
2022-12-09T18:12:43.000Z,2.3
2022-12-09T18:13:59.000Z,2.4
2022-12-09T18:15:15.000Z,2.4
2022-12-09T18:16:32.000Z,2.3
2022-12-09T18:17:48.000Z,2.2
2022-12-09T18:19:03.000Z,2.2
2022-12-09T18:21:35.000Z,2.1
2022-12-09T18:22:51.000Z,2.2
2022-12-09T18:24:07.000Z,2.3
2022-12-09T18:25:24.000Z,2.3
2022-12-09T18:27:56.000Z,2.4
2022-12-09T18:29:13.000Z,2.4
2022-12-09T18:30:29.000Z,2.4
2022-12-09T18:31:45.000Z,2.4
2022-12-09T18:33:01.000Z,2.4
2022-12-09T18:34:18.000Z,2.4
2022-12-09T18:36:50.000Z,2.4
2022-12-09T18:38:06.000Z,2.4
2022-12-09T18:39:21.000Z,2.3
2022-12-09T18:40:37.000Z,2.2
2022-12-09T18:41:53.000Z,2.2
2022-12-09T18:43:10.000Z,2.2
2022-12-09T18:44:26.000Z,2.1
2022-12-09T18:45:42.000Z,2
2022-12-09T18:46:59.000Z,2.1
2022-12-09T18:48:15.000Z,2
2022-12-09T18:49:31.000Z,2.1
2022-12-09T18:50:47.000Z,2.1
2022-12-09T18:52:03.000Z,2.1
2022-12-09T18:53:18.000Z,2.1
2022-12-09T18:54:34.000Z,2.2
2022-12-09T18:55:51.000Z,2.2
2022-12-09T18:57:07.000Z,2.3
2022-12-09T19:00:56.000Z,2.4
2022-12-09T19:02:12.000Z,2.4
2022-12-09T19:03:28.000Z,2.4
2022-12-09T19:07:17.000Z,2.4
2022-12-09T19:08:34.000Z,2.4
2022-12-09T19:09:49.000Z,2.4
2022-12-09T19:11:04.000Z,2.4
2022-12-09T19:12:19.000Z,2.4
2022-12-09T19:13:36.000Z,2.4
2022-12-09T19:14:52.000Z,2.4
2022-12-09T19:16:08.000Z,2.4
2022-12-09T19:18:41.000Z,2.4
2022-12-09T19:19:57.000Z,2.4
2022-12-09T19:21:13.000Z,2.4
2022-12-09T19:22:30.000Z,2.4
2022-12-09T19:23:46.000Z,2.4
2022-12-09T19:25:02.000Z,2.4
2022-12-09T19:26:19.000Z,2.4
2022-12-09T19:27:35.000Z,2.4
2022-12-09T19:28:50.000Z,2.4
2022-12-09T19:30:06.000Z,2.3
2022-12-09T19:31:23.000Z,2.3